Spinnerstown, Pennsylvania
Current Conditions -  °F | °C
As of 1:15 AM on Sunday 23 Nov 2014 (Local Time) from KUKT Reporting Station
Broken Clouds Broken Clouds  
Wind Chill: 35°   Ceiling: 10000
Heat Index: 39°   Visibility: 10mi
Dew Point: 23°   Wind: 6mph
Humidity: 52%   Direction: 210°SSW
Pressure: 30.19"   Gusts: NA
Location:  40.44°N, 75.44°W
Report Text: KUKT 230615Z AUTO 21005KT 10SM FEW075 BKN100 04/M05 A3019 RMK AO1
Loading
Personal Weather Stations






























Interactive Weather Map New forecast layout! Learn more

10-Day Weather Forecast

Advertisements
Track Severe Weather on mobile